createdAt,value
2023-01-28T00:01:40.895Z,1.37
2023-01-28T00:04:42.291Z,1.24
2023-01-28T00:07:43.697Z,1.27
2023-01-28T00:10:45.198Z,1.16
2023-01-28T00:13:46.912Z,1.26
2023-01-28T00:16:48.406Z,1.39
2023-01-28T00:19:50.018Z,1.39
2023-01-28T00:22:52.240Z,1.45
2023-01-28T00:25:54.673Z,1.38
2023-01-28T00:28:56.012Z,1.33
2023-01-28T00:31:57.551Z,1.39
2023-01-28T00:34:58.952Z,1.45
2023-01-28T00:38:00.437Z,1.33
2023-01-28T00:41:11.565Z,1.05
2023-01-28T00:44:12.978Z,1.12
2023-01-28T00:47:14.420Z,1.31
2023-01-28T00:50:16.234Z,1.39
2023-01-28T00:53:17.619Z,1.34
2023-01-28T00:56:20.632Z,1.31
2023-01-28T00:59:22.061Z,1.25
2023-01-28T01:02:23.641Z,1.22
2023-01-28T01:05:25.369Z,1.24
2023-01-28T01:08:34.920Z,1.26
2023-01-28T01:11:36.589Z,1.10
2023-01-28T01:14:38.056Z,1.07
2023-01-28T01:17:41.666Z,0.85
2023-01-28T01:20:45.572Z,0.85
2023-01-28T01:23:47.891Z,1.12
2023-01-28T01:26:49.568Z,1.26
2023-01-28T01:29:50.968Z,1.30
2023-01-28T01:32:55.304Z,1.30
2023-01-28T01:35:57.791Z,1.29
2023-01-28T01:39:00.916Z,1.23
2023-01-28T01:42:02.788Z,1.29
2023-01-28T01:45:13.308Z,1.23
2023-01-28T01:48:22.930Z,1.37
2023-01-28T01:51:30.534Z,1.36
2023-01-28T01:54:33.477Z,1.33
2023-01-28T01:57:36.710Z,1.36
2023-01-28T02:00:39.778Z,1.21
2023-01-28T02:03:53.265Z,1.12
2023-01-28T02:06:55.578Z,1.30
2023-01-28T02:09:56.922Z,1.33
2023-01-28T02:12:59.153Z,1.07
2023-01-28T02:16:03.035Z,1.25
2023-01-28T02:19:06.177Z,1.34
2023-01-28T02:22:29.942Z,1.32
2023-01-28T02:25:53.267Z,1.31
2023-01-28T02:29:22.764Z,1.38
2023-01-28T02:32:30.968Z,1.36
2023-01-28T02:35:43.452Z,1.32
2023-01-28T02:38:49.661Z,1.37
2023-01-28T02:42:02.614Z,1.35
2023-01-28T02:45:16.768Z,1.46
2023-01-28T02:48:21.688Z,1.38
2023-01-28T02:51:37.920Z,1.29
2023-01-28T02:54:52.701Z,1.13
2023-01-28T02:58:06.142Z,1.04
2023-01-28T03:01:18.897Z,1.21
2023-01-28T03:04:28.472Z,1.25
2023-01-28T03:07:34.320Z,1.41
2023-01-28T03:10:37.735Z,1.46
2023-01-28T03:13:58.793Z,1.35
2023-01-28T03:17:20.082Z,1.19
2023-01-28T03:20:43.616Z,0.97
2023-01-28T03:24:24.409Z,1.11
2023-01-28T03:27:54.439Z,1.33
2023-01-28T03:31:33.469Z,0.98
2023-01-28T03:34:54.447Z,1.35
2023-01-28T03:37:59.959Z,1.42
2023-01-28T03:41:04.319Z,1.51
2023-01-28T03:44:24.590Z,1.55
2023-01-28T03:47:28.902Z,1.58
2023-01-28T03:50:31.870Z,1.62
2023-01-28T03:53:36.110Z,1.64
2023-01-28T03:56:37.748Z,1.53
2023-01-28T03:59:39.193Z,1.56
2023-01-28T04:02:41.425Z,1.58
2023-01-28T04:06:07.693Z,1.53
2023-01-28T04:09:27.810Z,1.55
2023-01-28T04:12:49.905Z,1.37
2023-01-28T04:15:52.295Z,1.52
2023-01-28T04:18:54.117Z,1.70
2023-01-28T04:21:56.829Z,1.44
2023-01-28T04:24:59.338Z,1.59
2023-01-28T04:28:00.852Z,1.64
2023-01-28T04:31:04.926Z,1.57
2023-01-28T04:34:17.360Z,1.53
2023-01-28T04:37:37.138Z,1.59
2023-01-28T04:40:52.519Z,1.51
2023-01-28T04:44:00.880Z,1.65
2023-01-28T04:47:09.147Z,1.75
2023-01-28T04:50:30.853Z,1.71
2023-01-28T04:53:53.124Z,1.80
2023-01-28T04:56:59.728Z,1.67
2023-01-28T05:00:01.553Z,1.73
2023-01-28T05:03:03.326Z,1.76
2023-01-28T05:06:05.566Z,1.79
2023-01-28T05:09:27.246Z,1.73
2023-01-28T05:12:29.641Z,1.78
2023-01-28T05:15:32.109Z,1.70
2023-01-28T05:18:33.586Z,1.72
2023-01-28T05:21:44.430Z,1.75
2023-01-28T05:25:04.552Z,1.81
2023-01-28T05:28:06.252Z,1.77
2023-01-28T05:31:07.991Z,1.85
2023-01-28T05:34:09.605Z,1.85
2023-01-28T05:37:11.369Z,1.90
2023-01-28T05:40:14.326Z,1.85
2023-01-28T05:43:16.223Z,1.81
2023-01-28T05:46:36.370Z,1.78
2023-01-28T05:49:52.526Z,1.72
2023-01-28T05:53:07.201Z,1.69
2023-01-28T05:56:10.017Z,1.72
2023-01-28T05:59:13.359Z,1.73
2023-01-28T06:02:17.382Z,1.75
2023-01-28T06:05:19.813Z,1.77
2023-01-28T06:08:21.417Z,1.86
2023-01-28T06:11:22.853Z,1.88
2023-01-28T06:14:28.306Z,1.85
2023-01-28T06:17:41.471Z,1.89
2023-01-28T06:20:55.093Z,1.88
2023-01-28T06:23:56.554Z,1.79
2023-01-28T06:26:58.165Z,1.74
2023-01-28T06:29:59.561Z,1.72
2023-01-28T06:33:01.085Z,1.73
2023-01-28T06:36:04.282Z,1.73
2023-01-28T06:39:05.687Z,1.68
2023-01-28T06:42:07.256Z,1.67
2023-01-28T06:45:09.014Z,1.58
2023-01-28T06:48:10.429Z,1.49
2023-01-28T06:51:12.002Z,1.76
2023-01-28T06:54:13.408Z,1.62
2023-01-28T06:57:14.840Z,1.75
2023-01-28T07:00:17.368Z,1.61
2023-01-28T07:03:19.558Z,1.80
2023-01-28T07:06:20.977Z,1.79
2023-01-28T07:09:22.384Z,1.91
2023-01-28T07:12:24.250Z,1.84
2023-01-28T07:15:25.673Z,1.92
2023-01-28T07:18:27.161Z,1.88
2023-01-28T07:21:28.569Z,1.81
2023-01-28T07:24:30.632Z,1.81
2023-01-28T07:27:32.155Z,1.92
2023-01-28T07:30:33.710Z,1.84
2023-01-28T07:33:35.150Z,1.85
2023-01-28T07:36:36.564Z,1.96
2023-01-28T07:39:37.987Z,1.80
2023-01-28T07:42:39.887Z,1.84
2023-01-28T07:45:41.352Z,1.92
2023-01-28T07:48:42.881Z,2.03
2023-01-28T07:51:46.902Z,2.01
2023-01-28T07:54:48.443Z,2.02
2023-01-28T07:57:56.215Z,1.95
2023-01-28T08:00:59.082Z,1.71
2023-01-28T08:04:00.685Z,1.85
2023-01-28T08:07:02.145Z,1.97
2023-01-28T08:10:03.753Z,1.80
2023-01-28T08:13:06.255Z,1.62
2023-01-28T08:16:07.750Z,1.73
2023-01-28T08:19:09.241Z,1.72
2023-01-28T08:22:10.765Z,1.61
2023-01-28T08:25:12.572Z,1.67
2023-01-28T08:28:15.673Z,1.70
2023-01-28T08:31:17.186Z,1.79
2023-01-28T08:34:18.598Z,1.93
2023-01-28T08:37:20.008Z,2.00
2023-01-28T08:40:21.902Z,2.00
2023-01-28T08:43:23.896Z,2.08
2023-01-28T08:46:25.340Z,1.94
2023-01-28T08:49:26.800Z,2.17
2023-01-28T08:52:28.344Z,2.36
2023-01-28T08:55:30.532Z,2.41
2023-01-28T08:58:32.103Z,2.32
2023-01-28T09:01:34.085Z,2.46
2023-01-28T09:04:35.515Z,2.52
2023-01-28T09:07:38.013Z,2.34
2023-01-28T09:10:39.638Z,2.35
2023-01-28T09:13:41.152Z,2.41
2023-01-28T09:16:42.710Z,2.39
2023-01-28T09:19:44.423Z,2.39
2023-01-28T09:22:45.836Z,2.49
2023-01-28T09:25:47.234Z,2.49
2023-01-28T09:28:48.677Z,2.44
2023-01-28T09:31:50.189Z,2.53
2023-01-28T09:34:51.609Z,2.55
2023-01-28T09:37:57.896Z,2.61
2023-01-28T09:41:00.390Z,2.75
2023-01-28T09:44:08.245Z,2.81
2023-01-28T09:47:22.341Z,2.47
2023-01-28T09:50:35.424Z,2.78
2023-01-28T09:53:43.315Z,2.82
2023-01-28T09:56:50.602Z,2.91
2023-01-28T09:59:52.245Z,3.00
2023-01-28T10:03:22.576Z,2.73
2023-01-28T10:06:42.909Z,3.12
2023-01-28T10:10:03.091Z,3.04
2023-01-28T10:13:21.759Z,3.25
2023-01-28T10:16:32.169Z,3.07
2023-01-28T10:19:41.165Z,2.98
2023-01-28T10:22:53.447Z,3.15
2023-01-28T10:25:59.397Z,3.24
2023-01-28T10:29:13.208Z,3.16
2023-01-28T10:32:31.423Z,3.34
2023-01-28T10:35:43.832Z,3.47
2023-01-28T10:38:45.501Z,3.49
2023-01-28T10:41:57.312Z,3.42
2023-01-28T10:45:28.110Z,3.65
2023-01-28T10:48:33.184Z,3.24
2023-01-28T10:51:40.687Z,3.54
2023-01-28T10:54:42.102Z,3.47
2023-01-28T10:57:44.251Z,3.01
2023-01-28T11:00:46.156Z,3.45
2023-01-28T11:03:58.353Z,3.19
2023-01-28T11:07:17.216Z,3.29
2023-01-28T11:10:37.303Z,3.48
2023-01-28T11:13:49.850Z,3.33
2023-01-28T11:16:52.110Z,3.44
2023-01-28T11:19:56.219Z,3.60
2023-01-28T11:22:58.226Z,3.72
2023-01-28T11:26:07.474Z,3.53
2023-01-28T11:29:23.815Z,3.43
2023-01-28T11:32:26.588Z,3.41
2023-01-28T11:35:30.917Z,3.41
2023-01-28T11:38:32.569Z,3.25
2023-01-28T11:41:36.785Z,3.54
2023-01-28T11:44:38.528Z,3.65
2023-01-28T11:47:55.233Z,3.07
2023-01-28T11:51:22.942Z,3.50
2023-01-28T11:54:39.678Z,3.25
2023-01-28T11:57:44.649Z,3.06
2023-01-28T12:00:58.645Z,3.35
2023-01-28T12:04:38.254Z,3.08
2023-01-28T12:07:52.252Z,3.20
2023-01-28T12:10:59.629Z,3.43
2023-01-28T12:14:20.930Z,3.63
2023-01-28T12:17:32.444Z,3.77
2023-01-28T12:21:10.561Z,3.38
2023-01-28T12:24:39.712Z,3.34
2023-01-28T12:27:54.433Z,3.27
2023-01-28T12:31:11.249Z,3.25
2023-01-28T12:34:37.897Z,3.29
2023-01-28T12:38:04.347Z,3.33
2023-01-28T12:41:19.043Z,3.28
2023-01-28T12:44:27.360Z,3.40
2023-01-28T12:47:38.027Z,3.32
2023-01-28T12:50:51.923Z,3.24
2023-01-28T12:54:17.041Z,3.33
2023-01-28T12:57:31.108Z,3.28
2023-01-28T13:00:45.180Z,3.37
2023-01-28T13:03:57.379Z,3.45
2023-01-28T13:07:09.531Z,3.44
2023-01-28T13:10:20.598Z,3.50
2023-01-28T13:13:42.021Z,3.47
2023-01-28T13:16:43.710Z,3.39
2023-01-28T13:19:45.103Z,3.08
2023-01-28T13:22:46.610Z,3.46
2023-01-28T13:25:51.167Z,3.42
2023-01-28T13:28:54.915Z,3.49
2023-01-28T13:31:59.457Z,3.45
2023-01-28T13:35:07.611Z,3.34
2023-01-28T13:38:17.095Z,3.31
2023-01-28T13:41:18.547Z,3.11
2023-01-28T13:44:25.664Z,3.31
2023-01-28T13:47:34.291Z,3.17
2023-01-28T13:50:43.146Z,3.08
2023-01-28T13:53:52.575Z,3.22
2023-01-28T13:57:00.019Z,3.25
2023-01-28T14:00:32.421Z,3.28
2023-01-28T14:03:53.962Z,3.26
2023-01-28T14:07:26.498Z,3.41
2023-01-28T14:11:04.991Z,3.16
2023-01-28T14:14:25.459Z,3.11
2023-01-28T14:17:29.846Z,3.16
2023-01-28T14:20:39.540Z,3.19
2023-01-28T14:23:48.357Z,3.26
2023-01-28T14:27:05.224Z,3.28
2023-01-28T14:30:38.970Z,2.97
2023-01-28T14:33:41.604Z,3.03
2023-01-28T14:36:45.393Z,2.91
2023-01-28T14:39:51.170Z,3.06
2023-01-28T14:42:56.071Z,2.89
2023-01-28T14:46:30.794Z,2.58
2023-01-28T14:49:39.918Z,3.09
2023-01-28T14:53:12.771Z,3.06
2023-01-28T14:56:28.053Z,3.02
2023-01-28T14:59:42.339Z,2.95
2023-01-28T15:02:44.866Z,2.86
2023-01-28T15:05:46.345Z,3.02
2023-01-28T15:08:48.321Z,3.02
2023-01-28T15:11:56.020Z,2.97
2023-01-28T15:14:57.442Z,2.98
2023-01-28T15:18:04.041Z,2.72
2023-01-28T15:21:05.682Z,2.94
2023-01-28T15:24:14.649Z,2.99
2023-01-28T15:27:19.858Z,2.82
2023-01-28T15:30:30.481Z,3.04
2023-01-28T15:33:32.313Z,2.94
2023-01-28T15:36:33.941Z,2.95
2023-01-28T15:39:35.353Z,3.01
2023-01-28T15:42:38.715Z,2.82
2023-01-28T15:45:47.863Z,3.05
2023-01-28T15:48:57.738Z,3.19
2023-01-28T15:51:59.819Z,2.69
2023-01-28T15:55:03.084Z,2.89
2023-01-28T15:58:30.484Z,2.78
2023-01-28T16:01:31.879Z,3.12
2023-01-28T16:04:33.320Z,3.03
2023-01-28T16:07:45.041Z,3.20
2023-01-28T16:10:53.481Z,3.09
2023-01-28T16:13:55.493Z,3.07
2023-01-28T16:16:57.657Z,2.95
2023-01-28T16:20:02.777Z,3.11
2023-01-28T16:23:23.366Z,2.95
2023-01-28T16:26:26.840Z,3.08
2023-01-28T16:29:30.997Z,3.02
2023-01-28T16:32:39.501Z,3.14
2023-01-28T16:36:03.423Z,2.87
2023-01-28T16:39:02.379Z,2.69
2023-01-28T16:42:03.933Z,2.96
2023-01-28T16:45:05.890Z,3.05
2023-01-28T16:48:07.472Z,3.15
2023-01-28T16:51:16.181Z,2.59
2023-01-28T16:54:17.751Z,2.65
2023-01-28T16:57:22.196Z,2.79
2023-01-28T17:00:26.003Z,2.86
2023-01-28T17:03:27.529Z,3.02
2023-01-28T17:06:29.414Z,3.08
2023-01-28T17:09:30.863Z,2.87
2023-01-28T17:12:32.361Z,3.00
2023-01-28T17:15:35.400Z,3.13
2023-01-28T17:18:36.839Z,3.18
2023-01-28T17:21:38.342Z,3.16
2023-01-28T17:24:39.746Z,2.97
2023-01-28T17:27:41.215Z,3.02
2023-01-28T17:30:42.759Z,3.04
2023-01-28T17:33:44.388Z,3.15
2023-01-28T17:36:45.855Z,3.18
2023-01-28T17:39:47.373Z,3.19
2023-01-28T17:42:48.982Z,3.23
2023-01-28T17:45:51.314Z,3.08
2023-01-28T17:48:53.484Z,2.97
2023-01-28T17:51:54.898Z,3.04
2023-01-28T17:54:56.361Z,3.01
2023-01-28T17:57:58.441Z,3.13
2023-01-28T18:01:08.454Z,3.11
2023-01-28T18:04:11.091Z,3.10
2023-01-28T18:07:12.532Z,3.09
2023-01-28T18:10:14.352Z,3.05
2023-01-28T18:13:15.818Z,2.99
2023-01-28T18:16:19.460Z,3.09
2023-01-28T18:19:20.946Z,2.81
2023-01-28T18:22:22.947Z,2.93
2023-01-28T18:25:24.413Z,2.79
2023-01-28T18:28:26.751Z,2.75
2023-01-28T18:31:28.162Z,2.88
2023-01-28T18:34:31.448Z,2.70
2023-01-28T18:37:32.904Z,2.82
2023-01-28T18:40:34.312Z,2.81
2023-01-28T18:43:35.754Z,2.45
2023-01-28T18:46:37.302Z,2.76
2023-01-28T18:49:41.659Z,2.79
2023-01-28T18:52:43.067Z,2.51
2023-01-28T18:55:44.974Z,2.69
2023-01-28T18:58:46.436Z,2.69
2023-01-28T19:01:48.085Z,2.39
2023-01-28T19:04:49.566Z,2.60
2023-01-28T19:07:51.013Z,2.60
2023-01-28T19:10:56.106Z,2.68
2023-01-28T19:13:58.193Z,2.45
2023-01-28T19:16:59.761Z,2.69
2023-01-28T19:20:01.493Z,2.63
2023-01-28T19:23:03.040Z,2.51
2023-01-28T19:26:05.760Z,2.57
2023-01-28T19:29:10.155Z,2.58
2023-01-28T19:32:11.545Z,2.57
2023-01-28T19:35:13.045Z,2.64
2023-01-28T19:38:14.641Z,2.50
2023-01-28T19:41:17.329Z,2.64
2023-01-28T19:44:18.972Z,2.32
2023-01-28T19:47:20.374Z,2.21
2023-01-28T19:50:21.755Z,2.43
2023-01-28T19:53:23.781Z,2.00
2023-01-28T19:56:26.754Z,2.16
2023-01-28T19:59:28.158Z,2.39
2023-01-28T20:02:29.590Z,2.32
2023-01-28T20:05:31.028Z,2.22
2023-01-28T20:08:32.881Z,2.44
2023-01-28T20:11:34.822Z,2.33
2023-01-28T20:14:36.225Z,2.38
2023-01-28T20:17:37.743Z,2.21
2023-01-28T20:20:39.296Z,2.43
2023-01-28T20:23:40.745Z,2.42
2023-01-28T20:26:43.546Z,2.26
2023-01-28T20:29:45.106Z,2.13
2023-01-28T20:32:46.535Z,2.00
2023-01-28T20:35:48.467Z,2.04
2023-01-28T20:38:50.122Z,2.01
2023-01-28T20:41:51.577Z,2.04
2023-01-28T20:44:53.024Z,2.16
2023-01-28T20:47:54.455Z,2.07
2023-01-28T20:50:55.858Z,2.21
2023-01-28T20:53:58.225Z,1.84
2023-01-28T20:56:59.790Z,1.96
2023-01-28T21:00:01.192Z,1.76
2023-01-28T21:03:02.573Z,1.82
2023-01-28T21:06:04.180Z,1.79
2023-01-28T21:09:06.412Z,2.01
2023-01-28T21:12:07.842Z,2.01
2023-01-28T21:15:09.622Z,1.99
2023-01-28T21:18:11.035Z,1.53
2023-01-28T21:21:18.336Z,1.79
2023-01-28T21:24:19.797Z,1.66
2023-01-28T21:27:21.243Z,1.78
2023-01-28T21:30:22.711Z,1.61
2023-01-28T21:33:24.215Z,1.67
2023-01-28T21:36:26.573Z,1.50
2023-01-28T21:39:27.917Z,1.82
2023-01-28T21:42:29.800Z,1.77
2023-01-28T21:45:31.234Z,1.36
2023-01-28T21:48:32.692Z,1.54
2023-01-28T21:51:40.221Z,1.71
2023-01-28T21:54:41.612Z,1.49
2023-01-28T21:57:43.314Z,1.61
2023-01-28T22:00:44.710Z,1.34
2023-01-28T22:03:46.160Z,1.61
2023-01-28T22:06:47.807Z,1.40
2023-01-28T22:09:49.332Z,1.54
2023-01-28T22:12:50.739Z,1.51
2023-01-28T22:15:52.171Z,1.70
2023-01-28T22:18:53.661Z,1.56
2023-01-28T22:21:55.182Z,1.35
2023-01-28T22:24:56.620Z,1.42
2023-01-28T22:27:58.052Z,1.58
2023-01-28T22:31:13.745Z,1.49
2023-01-28T22:34:15.811Z,1.65
2023-01-28T22:37:17.246Z,1.69
2023-01-28T22:40:18.744Z,1.46
2023-01-28T22:43:20.192Z,1.20
2023-01-28T22:46:23.625Z,1.33
2023-01-28T22:49:26.590Z,1.52
2023-01-28T22:52:28.002Z,1.29
2023-01-28T22:55:31.447Z,1.61
2023-01-28T22:58:33.174Z,1.48
2023-01-28T23:01:35.720Z,1.43
2023-01-28T23:04:37.111Z,1.51
2023-01-28T23:07:38.744Z,1.54
2023-01-28T23:10:50.040Z,1.54
2023-01-28T23:14:11.779Z,1.59
2023-01-28T23:17:31.692Z,1.36
2023-01-28T23:20:51.862Z,1.53
2023-01-28T23:24:12.065Z,1.48
2023-01-28T23:27:13.440Z,1.46
2023-01-28T23:30:15.910Z,1.34
2023-01-28T23:33:17.795Z,1.58
2023-01-28T23:36:19.229Z,0.83
2023-01-28T23:39:20.750Z,1.31
2023-01-28T23:42:23.494Z,1.34
2023-01-28T23:45:25.207Z,1.21
2023-01-28T23:48:26.688Z,1.43
2023-01-28T23:51:28.418Z,1.22
2023-01-28T23:54:30.264Z,1.35
2023-01-28T23:57:31.774Z,1.35
